createdAt,value
2019-03-22T00:05:07.901Z,80.92
2019-03-22T00:07:37.772Z,79.71
2019-03-22T00:15:33.748Z,84.32
2019-03-22T00:18:03.591Z,79.61
2019-03-22T00:20:33.458Z,79.45
2019-03-22T00:23:03.328Z,79.88
2019-03-22T00:25:32.485Z,78.96
2019-03-22T00:28:02.341Z,79.60
2019-03-22T00:30:32.212Z,79.46
2019-03-22T00:33:02.089Z,79.11
2019-03-22T00:35:31.999Z,79.88
2019-03-22T00:38:01.836Z,79.63
2019-03-22T00:40:31.715Z,81.24
2019-03-22T00:43:01.613Z,79.92
2019-03-22T00:45:31.477Z,80.99
2019-03-22T00:48:01.346Z,78.78
2019-03-22T00:50:31.198Z,81.98
2019-03-22T00:53:00.237Z,80.67
2019-03-22T00:55:30.120Z,79.49
2019-03-22T00:57:59.967Z,81.76
2019-03-22T01:00:29.922Z,78.75
2019-03-22T01:02:59.792Z,81.99
2019-03-22T01:05:29.643Z,78.37
2019-03-22T01:07:59.513Z,77.36
2019-03-22T01:10:29.389Z,76.77
2019-03-22T01:12:59.239Z,74.80
2019-03-22T01:15:29.288Z,74.82
2019-03-22T01:17:59.136Z,73.90
2019-03-22T01:20:29.015Z,74.53
2019-03-22T01:22:58.884Z,76.75
2019-03-22T01:25:28.752Z,75.01
2019-03-22T01:27:58.616Z,74.67
2019-03-22T01:30:28.473Z,73.57
2019-03-22T01:32:58.337Z,73.15
2019-03-22T01:35:28.208Z,74.10
2019-03-22T01:37:58.075Z,72.95
2019-03-22T01:40:38.253Z,72.75
2019-03-22T01:43:08.117Z,74.05
2019-03-22T01:45:38.001Z,73.16
2019-03-22T01:48:07.870Z,73.68
2019-03-22T01:50:37.747Z,73.43
2019-03-22T01:53:07.800Z,73.75
2019-03-22T01:55:37.650Z,74.10
2019-03-22T01:58:07.512Z,73.98
2019-03-22T02:00:37.471Z,73.67
2019-03-22T02:03:07.389Z,73.72
2019-03-22T02:05:37.251Z,73.56
2019-03-22T02:08:18.860Z,74.48
2019-03-22T02:10:48.033Z,74.21
2019-03-22T02:13:17.907Z,75.86
2019-03-22T02:15:47.787Z,80.54
2019-03-22T02:18:16.989Z,74.80
2019-03-22T02:20:46.879Z,77.12
2019-03-22T02:23:16.783Z,75.44
2019-03-22T02:25:46.644Z,74.95
2019-03-22T02:28:16.525Z,77.92
2019-03-22T02:30:46.503Z,75.11
2019-03-22T02:33:16.419Z,77.25
2019-03-22T02:35:46.317Z,76.98
2019-03-22T02:38:16.179Z,79.73
2019-03-22T02:40:46.048Z,73.82
2019-03-22T02:43:15.902Z,74.77
2019-03-22T02:45:45.764Z,74.56
2019-03-22T02:48:15.620Z,77.80
2019-03-22T02:50:45.487Z,77.74
2019-03-22T02:53:15.356Z,73.75
2019-03-22T02:55:44.564Z,75.22
2019-03-22T02:58:21.067Z,76.03
2019-03-22T03:01:04.281Z,74.38
2019-03-22T03:03:34.150Z,74.77
2019-03-22T03:06:04.178Z,75.13
2019-03-22T03:08:34.045Z,75.54
2019-03-22T03:11:03.339Z,76.09
2019-03-22T03:13:33.196Z,76.07
2019-03-22T03:18:47.067Z,76.06
2019-03-22T03:21:16.952Z,75.39
2019-03-22T03:23:46.829Z,78.00
2019-03-22T03:26:16.667Z,76.12
2019-03-22T03:28:46.525Z,75.62
2019-03-22T03:31:16.379Z,78.39
2019-03-22T03:33:46.253Z,75.96
2019-03-22T03:36:16.128Z,78.20
2019-03-22T03:38:45.983Z,75.76
2019-03-22T03:41:15.833Z,81.08
2019-03-22T03:43:45.738Z,75.77
2019-03-22T03:46:15.599Z,76.00
2019-03-22T03:48:44.771Z,75.74
2019-03-22T03:51:14.633Z,75.74
2019-03-22T03:53:44.543Z,76.99
2019-03-22T03:56:14.413Z,76.52
2019-03-22T03:58:52.267Z,77.05
2019-03-22T04:01:34.032Z,77.19
2019-03-22T04:04:14.731Z,77.64
2019-03-22T04:06:43.886Z,76.34
2019-03-22T04:09:13.751Z,77.03
2019-03-22T04:11:43.789Z,81.89
2019-03-22T04:14:13.612Z,80.24
2019-03-22T04:16:43.482Z,80.92
2019-03-22T04:19:13.335Z,81.63
2019-03-22T04:21:42.426Z,82.93
2019-03-22T04:24:12.267Z,82.76
2019-03-22T04:26:42.135Z,82.86
2019-03-22T04:29:12.001Z,81.27
2019-03-22T04:31:41.893Z,81.09
2019-03-22T04:34:11.728Z,82.35
2019-03-22T04:36:41.614Z,83.13
2019-03-22T04:39:11.460Z,83.35
2019-03-22T04:41:41.330Z,85.46
2019-03-22T04:44:11.198Z,81.36
2019-03-22T05:05:02.440Z,80.43
2019-03-22T05:07:44.037Z,80.81
2019-03-22T05:16:39.834Z,81.21
2019-03-22T05:34:09.277Z,81.91
2019-03-22T05:36:39.120Z,81.96
2019-03-22T05:39:09.582Z,82.10
2019-03-22T05:41:38.983Z,80.96
2019-03-22T05:44:08.862Z,81.40
2019-03-22T05:46:38.772Z,80.81
2019-03-22T05:49:08.636Z,80.98
2019-03-22T05:51:38.493Z,80.25
2019-03-22T05:54:08.367Z,79.26
2019-03-22T05:56:38.238Z,78.40
2019-03-22T05:59:08.104Z,79.00
2019-03-22T06:01:37.982Z,78.76
2019-03-22T06:04:07.853Z,78.95
2019-03-22T06:06:37.708Z,79.14
2019-03-22T06:09:08.691Z,83.92
2019-03-22T06:11:37.969Z,78.50
2019-03-22T06:14:07.827Z,78.88
2019-03-22T06:16:37.717Z,78.50
2019-03-22T06:19:07.593Z,77.09
2019-03-22T06:21:37.469Z,77.01
2019-03-22T06:24:07.451Z,82.10
2019-03-22T06:26:37.403Z,75.33
2019-03-22T06:29:07.307Z,80.14
2019-03-22T06:31:37.182Z,75.49
2019-03-22T06:34:07.064Z,73.48
2019-03-22T06:36:37.109Z,72.99
2019-03-22T06:39:08.863Z,72.93
2019-03-22T06:41:38.892Z,73.08
2019-03-22T06:44:08.372Z,73.72
2019-03-22T06:46:38.365Z,74.40
2019-03-22T06:49:08.245Z,73.91
2019-03-22T06:51:38.100Z,73.35
2019-03-22T06:54:07.978Z,73.74
2019-03-22T06:56:37.856Z,75.18
2019-03-22T06:59:07.732Z,73.04
2019-03-22T07:01:37.607Z,74.06
2019-03-22T07:04:07.464Z,71.65
2019-03-22T07:06:37.338Z,71.59
2019-03-22T07:09:08.631Z,76.24
2019-03-22T07:11:38.128Z,72.07
2019-03-22T07:14:08.036Z,70.96
2019-03-22T07:16:37.929Z,70.74
2019-03-22T07:19:07.828Z,71.79
2019-03-22T07:21:37.697Z,70.49
2019-03-22T07:26:47.418Z,69.60
2019-03-22T07:29:17.291Z,69.74
2019-03-22T07:31:47.163Z,74.18
2019-03-22T07:34:17.029Z,77.45
2019-03-22T07:36:47.229Z,69.79
2019-03-22T07:39:17.077Z,70.41
2019-03-22T07:41:46.988Z,76.23
2019-03-22T07:44:16.891Z,76.36
2019-03-22T07:46:46.759Z,67.37
2019-03-22T07:49:16.654Z,70.09
2019-03-22T07:51:46.551Z,69.23
2019-03-22T07:54:16.448Z,66.52
2019-03-22T07:56:46.319Z,65.50
2019-03-22T07:59:16.274Z,65.66
2019-03-22T08:01:46.199Z,69.43
2019-03-22T08:04:15.285Z,71.53
2019-03-22T08:06:45.149Z,69.50
2019-03-22T08:09:15.018Z,66.32
2019-03-22T08:11:44.911Z,68.87
2019-03-22T08:14:16.371Z,66.92
2019-03-22T08:17:04.569Z,67.76
2019-03-22T08:19:33.757Z,67.93
2019-03-22T08:22:03.623Z,68.79
2019-03-22T08:24:33.493Z,68.68
2019-03-22T08:27:03.504Z,69.46
2019-03-22T08:29:33.586Z,74.21
2019-03-22T08:32:03.455Z,71.19
2019-03-22T08:34:33.309Z,70.30
2019-03-22T08:37:03.242Z,69.68
2019-03-22T08:39:33.113Z,70.95
2019-03-22T08:42:03.001Z,70.25
2019-03-22T08:44:32.899Z,68.77
2019-03-22T08:47:02.914Z,68.47
2019-03-22T08:49:33.015Z,68.31
2019-03-22T08:55:23.821Z,64.74
2019-03-22T08:57:52.930Z,66.43
2019-03-22T09:00:22.968Z,64.97
2019-03-22T09:02:52.846Z,66.72
2019-03-22T09:05:22.725Z,67.67
2019-03-22T09:07:52.596Z,64.40
2019-03-22T09:10:22.515Z,67.52
2019-03-22T09:12:52.593Z,67.08
2019-03-22T09:15:24.723Z,64.61
2019-03-22T09:17:54.661Z,63.43
2019-03-22T09:20:24.542Z,63.33
2019-03-22T09:22:54.535Z,62.45
2019-03-22T09:25:24.421Z,62.11
2019-03-22T09:27:54.290Z,62.43
2019-03-22T09:30:24.198Z,63.98
2019-03-22T09:32:54.088Z,60.72
2019-03-22T09:35:43.574Z,63.51
2019-03-22T09:38:13.506Z,59.97
2019-03-22T09:41:02.565Z,58.97
2019-03-22T09:43:32.622Z,60.94
2019-03-22T09:46:02.504Z,59.23
2019-03-22T09:48:32.526Z,59.80
2019-03-22T09:51:02.413Z,57.15
2019-03-22T09:53:32.268Z,57.22
2019-03-22T09:56:02.159Z,55.36
2019-03-22T09:58:32.148Z,56.02
2019-03-22T10:01:02.134Z,55.95
2019-03-22T10:03:32.104Z,55.22
2019-03-22T10:06:02.037Z,55.81
2019-03-22T10:08:31.909Z,57.11
2019-03-22T10:11:01.823Z,57.90
2019-03-22T10:13:31.707Z,55.89
2019-03-22T10:16:01.662Z,57.42
2019-03-22T10:18:31.677Z,55.26
2019-03-22T10:21:01.584Z,56.86
2019-03-22T10:23:31.468Z,53.66
2019-03-22T10:26:01.362Z,56.63
2019-03-22T10:28:31.242Z,52.14
2019-03-22T10:31:01.154Z,51.70
2019-03-22T10:33:31.026Z,52.85
2019-03-22T10:36:00.939Z,56.03
2019-03-22T10:38:32.154Z,54.45
2019-03-22T10:41:20.604Z,55.03
2019-03-22T10:43:50.545Z,53.50
2019-03-22T10:46:20.394Z,53.80
2019-03-22T10:48:50.310Z,52.56
2019-03-22T10:51:21.627Z,52.56
2019-03-22T10:54:10.449Z,51.26
2019-03-22T10:56:40.391Z,52.60
2019-03-22T10:59:10.284Z,55.99
2019-03-22T11:01:48.695Z,48.73
2019-03-22T11:04:29.970Z,51.58
2019-03-22T11:07:00.013Z,48.66
2019-03-22T11:09:29.959Z,47.63
2019-03-22T11:11:59.842Z,47.62
2019-03-22T11:14:29.755Z,48.24
2019-03-22T11:16:59.687Z,47.78
2019-03-22T11:19:29.693Z,46.77
2019-03-22T11:21:59.604Z,50.14
2019-03-22T11:24:29.518Z,48.65
2019-03-22T11:26:59.404Z,48.86
2019-03-22T11:29:29.613Z,47.20
2019-03-22T11:31:59.602Z,51.42
2019-03-22T11:34:29.498Z,46.96
2019-03-22T11:36:59.375Z,46.44
2019-03-22T11:39:29.257Z,45.17
2019-03-22T11:45:01.935Z,46.04
2019-03-22T11:47:31.901Z,45.81
2019-03-22T11:50:01.800Z,45.09
2019-03-22T11:52:31.817Z,46.30
2019-03-22T11:55:01.861Z,49.51
2019-03-22T11:57:31.784Z,46.71
2019-03-22T12:00:01.664Z,45.62
2019-03-22T12:02:31.564Z,39.94
2019-03-22T12:05:01.592Z,43.29
2019-03-22T12:07:31.531Z,39.52
2019-03-22T12:10:01.749Z,41.39
2019-03-22T12:12:31.637Z,42.20
2019-03-22T12:15:01.519Z,40.32
2019-03-22T12:17:31.445Z,43.15
2019-03-22T12:20:01.426Z,40.52
2019-03-22T12:22:31.280Z,41.00
2019-03-22T12:25:01.150Z,41.83
2019-03-22T12:27:36.433Z,40.93
2019-03-22T12:30:20.937Z,40.89
2019-03-22T12:32:50.850Z,40.69
2019-03-22T12:38:23.115Z,42.37
2019-03-22T12:40:53.057Z,44.36
2019-03-22T12:43:22.929Z,44.36
2019-03-22T12:45:52.806Z,39.66
2019-03-22T12:48:22.694Z,42.04
2019-03-22T12:50:52.580Z,39.79
2019-03-22T12:53:22.477Z,40.03
2019-03-22T12:55:52.347Z,43.04
2019-03-22T12:58:22.219Z,43.20
2019-03-22T13:00:52.134Z,43.42
2019-03-22T13:03:21.378Z,42.50
2019-03-22T13:05:51.260Z,40.44
2019-03-22T13:08:21.178Z,41.73
2019-03-22T13:10:51.051Z,39.04
2019-03-22T13:13:20.936Z,40.11
2019-03-22T13:15:50.816Z,44.99
2019-03-22T13:18:20.825Z,43.53
2019-03-22T13:20:51.213Z,41.95
2019-03-22T13:23:40.476Z,41.41
2019-03-22T13:26:10.438Z,43.94
2019-03-22T13:28:40.326Z,43.98
2019-03-22T13:31:11.676Z,40.29
2019-03-22T13:34:00.014Z,42.60
2019-03-22T13:39:13.445Z,45.79
2019-03-22T13:41:43.390Z,40.54
2019-03-22T13:44:13.264Z,44.22
2019-03-22T13:49:45.808Z,40.83
2019-03-22T13:52:15.682Z,41.33
2019-03-22T13:57:29.340Z,41.81
2019-03-22T13:59:59.241Z,42.41
2019-03-22T14:02:29.121Z,44.10
2019-03-22T14:04:59.015Z,46.99
2019-03-22T14:07:28.896Z,42.89
2019-03-22T14:09:58.811Z,46.19
2019-03-22T14:15:08.826Z,46.88
2019-03-22T14:17:38.734Z,45.33
2019-03-22T14:20:20.374Z,43.29
2019-03-22T14:22:49.559Z,43.37
2019-03-22T14:25:19.439Z,43.26
2019-03-22T14:27:48.512Z,45.05
2019-03-22T14:30:17.894Z,44.37
2019-03-22T14:32:47.790Z,46.69
2019-03-22T14:35:17.676Z,44.11
2019-03-22T14:37:47.539Z,43.74
2019-03-22T14:40:17.436Z,45.38
2019-03-22T14:42:47.451Z,46.01
2019-03-22T14:45:17.431Z,43.81
2019-03-22T14:47:47.303Z,44.99
2019-03-22T14:50:17.183Z,44.54
2019-03-22T14:52:47.044Z,44.59
2019-03-22T14:55:16.974Z,49.00
2019-03-22T14:57:50.060Z,44.63
2019-03-22T15:00:36.647Z,45.22
2019-03-22T15:03:23.459Z,44.08
2019-03-22T15:06:06.531Z,43.91
2019-03-22T15:11:19.447Z,45.46
2019-03-22T15:14:08.803Z,43.53
2019-03-22T15:16:57.456Z,44.56
2019-03-22T15:19:46.576Z,43.44
2019-03-22T15:22:35.648Z,45.27
2019-03-22T15:25:25.671Z,44.87
2019-03-22T15:28:15.057Z,45.80
2019-03-22T15:34:06.691Z,44.29
2019-03-22T15:36:56.153Z,43.33
2019-03-22T15:39:45.513Z,43.90
2019-03-22T15:42:15.411Z,43.59
2019-03-22T15:44:45.294Z,45.75
2019-03-22T15:47:15.199Z,43.80
2019-03-22T15:49:44.492Z,43.71
2019-03-22T15:52:14.372Z,43.31
2019-03-22T15:54:44.241Z,43.69
2019-03-22T15:57:14.150Z,43.15
2019-03-22T15:59:44.037Z,43.39
2019-03-22T16:02:14.131Z,44.32
2019-03-22T16:04:44.007Z,44.07
2019-03-22T16:07:13.948Z,43.57
2019-03-22T16:09:43.268Z,42.71
2019-03-22T16:12:13.246Z,44.60
2019-03-22T16:14:43.151Z,45.23
2019-03-22T16:17:13.033Z,46.79
2019-03-22T16:19:42.952Z,45.74
2019-03-22T16:22:12.901Z,51.50
2019-03-22T16:24:43.024Z,48.26
2019-03-22T16:27:12.961Z,50.16
2019-03-22T16:29:42.839Z,54.08
2019-03-22T16:32:12.812Z,52.16
2019-03-22T16:34:42.835Z,53.33
2019-03-22T16:37:12.744Z,53.13
2019-03-22T16:39:42.804Z,53.07
2019-03-22T16:42:12.692Z,55.18
2019-03-22T16:44:42.588Z,52.76
2019-03-22T16:47:12.531Z,55.09
2019-03-22T16:49:42.462Z,55.64
2019-03-22T16:52:12.370Z,55.02
2019-03-22T16:54:42.469Z,55.07
2019-03-22T16:57:13.366Z,54.46
2019-03-22T16:59:43.080Z,55.31
2019-03-22T17:02:13.063Z,52.74
2019-03-22T17:04:42.969Z,51.27
2019-03-22T17:09:58.411Z,50.16
2019-03-22T17:12:28.322Z,58.45
2019-03-22T17:14:58.676Z,52.80
2019-03-22T17:17:28.594Z,58.08
2019-03-22T17:19:59.441Z,59.31
2019-03-22T17:22:29.346Z,56.33
2019-03-22T17:24:59.352Z,55.83
2019-03-22T17:27:29.250Z,58.32
2019-03-22T17:29:59.153Z,57.48
2019-03-22T17:32:29.031Z,57.34
2019-03-22T17:34:58.915Z,58.38
2019-03-22T17:37:28.860Z,58.70
2019-03-22T17:39:58.820Z,55.55
2019-03-22T17:42:28.700Z,55.94
2019-03-22T17:44:58.568Z,55.57
2019-03-22T17:47:28.581Z,59.97
2019-03-22T17:49:58.488Z,59.10
2019-03-22T17:52:28.384Z,59.15
2019-03-22T17:54:58.304Z,57.07
2019-03-22T17:57:28.195Z,60.61
2019-03-22T17:59:58.111Z,58.31
2019-03-22T18:02:28.077Z,56.83
2019-03-22T18:04:57.976Z,54.76
2019-03-22T18:07:27.978Z,57.62
2019-03-22T18:09:57.908Z,56.19
2019-03-22T18:12:27.849Z,55.15
2019-03-22T18:14:57.739Z,55.31
2019-03-22T18:17:27.705Z,55.05
2019-03-22T18:19:57.584Z,55.21
2019-03-22T18:28:14.484Z,58.05
2019-03-22T18:30:55.739Z,58.75
2019-03-22T18:33:25.124Z,58.89
2019-03-22T18:35:55.075Z,60.49
2019-03-22T18:41:08.691Z,59.37
2019-03-22T18:43:38.560Z,59.37
2019-03-22T18:46:08.464Z,61.12
2019-03-22T18:48:38.427Z,58.41
2019-03-22T18:51:19.829Z,59.73
2019-03-22T18:53:49.323Z,59.84
2019-03-22T18:56:19.223Z,59.13
2019-03-22T18:58:49.108Z,61.32
2019-03-22T19:01:19.078Z,60.79
2019-03-22T19:03:48.946Z,60.19
2019-03-22T19:06:19.004Z,60.92
2019-03-22T19:11:32.676Z,60.27
2019-03-22T19:17:05.637Z,60.90
2019-03-22T19:19:35.628Z,61.73
2019-03-22T19:22:17.541Z,61.94
2019-03-22T19:24:58.788Z,62.59
2019-03-22T19:27:28.018Z,62.74
2019-03-22T19:29:58.347Z,62.98
2019-03-22T19:32:28.260Z,63.67
2019-03-22T19:34:58.307Z,63.05
2019-03-22T19:37:28.218Z,62.74
2019-03-22T19:39:58.090Z,63.39
2019-03-22T19:42:28.550Z,63.56
2019-03-22T19:44:58.509Z,63.83
2019-03-22T19:47:28.485Z,63.94
2019-03-22T19:49:58.512Z,63.86
2019-03-22T19:52:28.440Z,63.91
2019-03-22T19:54:58.328Z,63.09
2019-03-22T19:57:28.693Z,63.83
2019-03-22T19:59:58.653Z,63.00
2019-03-22T20:02:28.256Z,64.35
2019-03-22T20:07:42.219Z,63.51
2019-03-22T20:10:12.516Z,68.67
2019-03-22T20:12:42.650Z,65.78
2019-03-22T20:18:15.145Z,64.22
2019-03-22T20:23:53.524Z,65.03
2019-03-22T20:29:43.957Z,64.69
2019-03-22T20:34:56.989Z,66.62
2019-03-22T20:37:26.928Z,66.21
2019-03-22T20:39:56.839Z,67.97
2019-03-22T20:42:26.879Z,67.68
2019-03-22T20:44:56.766Z,66.82
2019-03-22T20:47:26.850Z,67.01
2019-03-22T20:49:57.076Z,67.14
2019-03-22T20:52:27.435Z,69.11
2019-03-22T20:54:57.468Z,66.61
2019-03-22T20:57:27.326Z,67.14
2019-03-22T20:59:57.617Z,69.56
2019-03-22T21:02:27.638Z,67.42
2019-03-22T21:04:57.872Z,67.39
2019-03-22T21:07:28.388Z,66.47
2019-03-22T21:09:58.289Z,68.07
2019-03-22T21:12:28.426Z,66.30
2019-03-22T21:14:58.586Z,66.61
2019-03-22T21:17:28.480Z,67.12
2019-03-22T21:19:58.382Z,67.09
2019-03-22T21:22:28.661Z,67.17
2019-03-22T21:24:58.557Z,66.13
2019-03-22T21:27:29.062Z,66.14
2019-03-22T21:29:59.278Z,66.71
2019-03-22T21:35:37.172Z,65.63
2019-03-22T21:38:22.039Z,65.48
2019-03-22T21:40:51.963Z,65.81
2019-03-22T21:46:23.719Z,67.16
2019-03-22T21:48:53.979Z,66.30
2019-03-22T21:51:23.900Z,68.26
2019-03-22T21:53:54.125Z,70.44
2019-03-22T21:56:24.024Z,68.57
2019-03-22T21:58:54.232Z,67.64
2019-03-22T22:01:24.401Z,70.22
2019-03-22T22:03:54.727Z,71.43
2019-03-22T22:06:24.674Z,68.45
2019-03-22T22:08:54.565Z,66.84
2019-03-22T22:11:24.443Z,67.23
2019-03-22T22:13:54.335Z,70.46
2019-03-22T22:16:24.229Z,67.99
2019-03-22T22:18:54.115Z,69.70
2019-03-22T22:21:23.307Z,67.72
2019-03-22T22:23:53.211Z,67.24
2019-03-22T22:26:23.079Z,68.68
2019-03-22T22:28:52.386Z,72.89
2019-03-22T22:31:24.554Z,69.71
2019-03-22T22:33:54.442Z,70.13
2019-03-22T22:36:24.334Z,71.86
2019-03-22T22:38:54.210Z,69.50
2019-03-22T22:41:23.305Z,69.77
2019-03-22T22:43:53.180Z,70.77
2019-03-22T22:46:23.060Z,70.17
2019-03-22T22:48:52.976Z,70.07
2019-03-22T22:51:22.848Z,70.43
2019-03-22T22:53:52.717Z,69.91
2019-03-22T22:56:21.895Z,71.04
2019-03-22T22:58:51.809Z,73.58
2019-03-22T23:01:21.656Z,70.92
2019-03-22T23:03:51.629Z,72.40
2019-03-22T23:06:21.507Z,71.77
2019-03-22T23:08:51.405Z,74.49
2019-03-22T23:11:21.269Z,73.58
2019-03-22T23:13:51.155Z,71.59
2019-03-22T23:16:21.073Z,71.83
2019-03-22T23:18:50.961Z,72.65
2019-03-22T23:24:02.215Z,71.88
2019-03-22T23:26:31.410Z,72.96
2019-03-22T23:29:01.282Z,72.40
2019-03-22T23:31:31.175Z,71.52
2019-03-22T23:34:01.094Z,71.84
2019-03-22T23:36:30.950Z,72.37
2019-03-22T23:39:00.828Z,74.71
2019-03-22T23:41:30.728Z,74.76
2019-03-22T23:44:00.595Z,79.14
2019-03-22T23:46:30.511Z,76.01
2019-03-22T23:49:00.373Z,76.33
2019-03-22T23:51:30.269Z,77.78
2019-03-22T23:54:00.237Z,75.10
2019-03-22T23:56:30.138Z,75.13
2019-03-22T23:59:00.018Z,75.44
